Garrison, Maryland
Current Conditions -  °F | °C
As of 7:54 PM on Saturday 25 Oct 2014 (Local Time) from KBWI Reporting Station
Few Clouds Few Clouds  
Wind Chill: 61°   Ceiling: Unl
Heat Index: 61°   Visibility: 10mi
Dew Point: 39°   Wind: 6mph
Humidity: 44%   Direction: 220°SW
Pressure: 29.72"   Gusts: NA
Location:  39.41°N, 76.76°W
Report Text: KBWI 252354Z 22005KT 10SM FEW250 16/04 A2972 RMK AO2 SLP064 T01610039 10217 20161 55009
Loading
Personal Weather Stations






























Interactive Weather Map
Tropical Storm Tracking
New forecast layout! Learn more

10-Day Weather Forecast

Advertisements
Track Severe Weather on mobile